Chippenham, United Kingdom
Current Conditions -  °F | °C
As of 5:58 PM on Wednesday 28 Jan 2015 (Local Time) from EGVA Reporting Station
Clear Clear  
Wind Chill: 29°   Ceiling: Unl
Heat Index: 36°   Visibility: 6mi
Dew Point: 29°   Wind: 9mph
Humidity: 75%   Direction: 230°SW
Pressure: 29.61"   Gusts: NA
Location:  51.46°N, 2.12°W
Report Text: EGVA 281758Z AUTO 23008KT 9999 CLR 02/M02 A2961 RMK AO2 SLP033 60000 T00231018 10069 20022 50003 $
Loading
Personal Weather Stations






























Interactive Weather Map New forecast layout! Learn more

10-Day Weather Forecast

Advertisements
Track Severe Weather on mobile